CYUY

Rouyn-Noranda Airport

Airport
ICAO code
CYUY
IATA Code
YUY
Summary
ICAO Region
NAM
ICAO Territory
Location

Rouyn-Noranda, Quebec,

Serving
Rouyn-Noranda
Elevation
988 ft
Coordinates
48° 12' 30" N , 78° 49' 46" W
KCC
Dfb
Metar
Observation
CYUY 091800Z VRB03KT 15SM FEW044 21/08 A3003 RMK CU1 CU TR SLP177 DENSITY ALT 1900FT
Station
Rouyn Airport
Date/Time
2022-08-09 18:00:00
Wind speed
03 kts
Lowest cloud amount
few clouds
Temperature
21°C
Dew point
8°C
Humidity
43%
Weather condition
n/a

Description

Rouyn-Noranda Airport, is located 7.5 nm east southeast of Rouyn-Noranda, Quebec, Canada.

Climatology

Humid Continental climate (Köppen climate classification Dfb) - Variable weather patterns and a large seasonal temperature variance. Summers are often warm and humid with frequent thunderstorms and winters can be very cold with frequent snowfall and persistent snow cover.

Runways

Designator Length Width Surface Rops
8/26 2281 46 ASP No/No

Airport map

Aerial View

SKYbrary Partners:

Safety knowledge contributed by: